Time;durP1;ratioP1;P1;durP2;ratioP2;P2;SDS_P1;SDS_P2;PMS_P1;PMS_P2;Temp;Humidity;BMP_temperature;BMP_pressure;BME280_temperature;BME280_humidity;BME280_pressure;Samples;Min_cycle;Max_cycle;Signal;HPM_P1;HPM_P2
2021/07/27 00:00:03;;;;;;;13.53;5.60;;;;;;;20.76;88.16;99854.59;2687745;88;21127;-64
2021/07/27 00:04:05;;;;;;;13.05;6.10;;;;;;;20.68;87.88;99861.86;2687790;88;21537;-66
2021/07/27 00:08:12;;;;;;;18.00;5.67;;;;;;;20.67;88.27;99864.24;2687301;87;21082;-63
2021/07/27 00:12:13;;;;;;;19.55;5.92;;;;;;;20.75;88.00;99861.88;2687564;88;21050;-63
2021/07/27 00:16:16;;;;;;;29.57;9.48;;;;;;;20.66;86.89;99850.92;2687206;88;21587;-62
2021/07/27 00:20:18;;;;;;;18.10;5.50;;;;;;;20.62;87.11;99861.83;2687552;88;21058;-63
2021/07/27 00:24:25;;;;;;;14.47;6.12;;;;;;;20.52;86.28;99854.10;2687533;88;21058;-64
2021/07/27 00:28:23;;;;;;;15.00;5.37;;;;;;;20.19;86.27;99865.58;2676972;88;21096;-62
2021/07/27 00:32:25;;;;;;;39.50;9.80;;;;;;;19.91;88.81;99884.82;2663608;89;21091;-64
2021/07/27 00:36:29;;;;;;;13.75;6.55;;;;;;;19.81;89.68;99879.74;2663644;88;21051;-64
2021/07/27 00:40:31;;;;;;;32.25;7.58;;;;;;;19.87;89.88;99888.92;2663688;88;21130;-64
2021/07/27 00:44:33;;;;;;;20.68;7.10;;;;;;;19.90;90.02;99880.96;2663402;88;21066;-61
2021/07/27 00:48:36;;;;;;;23.42;6.65;;;;;;;19.93;89.75;99879.24;2662917;89;21604;-64
2021/07/27 00:52:39;;;;;;;18.35;6.42;;;;;;;19.92;89.89;99884.32;2663086;88;21055;-64
2021/07/27 00:56:41;;;;;;;10.32;6.28;;;;;;;19.91;89.14;99876.73;2663166;89;21103;-64
2021/07/27 01:00:43;;;;;;;14.28;5.72;;;;;;;19.80;89.70;99861.88;2663148;88;21126;-63
2021/07/27 01:04:45;;;;;;;46.92;12.20;;;;;;;19.78;90.80;99850.45;2663181;88;21234;-66
2021/07/27 01:08:47;;;;;;;27.15;8.95;;;;;;;19.82;90.51;99850.91;2662829;89;21051;-64
2021/07/27 01:12:49;;;;;;;18.17;7.10;;;;;;;19.82;90.00;99849.56;2640014;89;21024;-64
2021/07/27 01:16:51;;;;;;;25.75;8.03;;;;;;;19.86;90.68;99856.75;2663115;89;21060;-62
2021/07/27 01:42:47;;;;;;;31.07;9.05;;;;;;;19.90;89.65;99872.33;2662996;89;21008;-62
2021/07/27 01:46:52;;;;;;;20.02;8.50;;;;;;;19.92;89.73;99870.83;2663069;88;21108;-63
2021/07/27 01:50:56;;;;;;;37.00;7.85;;;;;;;19.95;89.95;99865.03;2663348;88;21107;-63
2021/07/27 01:54:58;;;;;;;27.00;7.95;;;;;;;20.04;89.66;99867.06;2663296;89;21139;-63
2021/07/27 01:59:01;;;;;;;21.52;8.28;;;;;;;20.04;88.90;99873.80;2663465;88;21344;-64
2021/07/27 02:03:05;;;;;;;26.95;8.63;;;;;;;19.75;89.34;99864.34;2663483;88;21115;-64
2021/07/27 02:07:09;;;;;;;35.20;7.08;;;;;;;19.76;90.47;99866.02;2663332;88;21608;-63
2021/07/27 02:11:12;;;;;;;31.10;8.58;;;;;;;19.86;90.60;99864.84;2663536;89;21092;-62
2021/07/27 02:15:17;;;;;;;20.70;6.62;;;;;;;19.89;90.08;99871.20;2663180;89;21703;-64
2021/07/27 02:19:20;;;;;;;39.58;8.53;;;;;;;19.82;89.37;99870.61;2663369;89;21071;-63
2021/07/27 02:23:22;;;;;;;41.60;8.45;;;;;;;19.79;89.73;99875.06;2663138;89;21023;-63
2021/07/27 02:27:29;;;;;;;31.25;9.30;;;;;;;19.76;89.55;99872.76;2663405;89;20996;-63
2021/07/27 02:31:39;;;;;;;35.15;7.53;;;;;;;19.79;89.61;99875.59;2674562;88;21063;-63
2021/07/27 02:35:39;;;;;;;25.43;7.37;;;;;;;19.80;89.35;99867.28;2673595;89;21059;-62
2021/07/27 02:39:41;;;;;;;35.98;8.48;;;;;;;19.80;89.84;99878.08;2674623;89;21107;-63
2021/07/27 02:43:43;;;;;;;31.55;8.55;;;;;;;19.79;89.53;99873.71;2674555;89;21027;-62
2021/07/27 02:47:45;;;;;;;39.58;8.33;;;;;;;19.80;89.95;99869.98;2674473;89;21512;-62
2021/07/27 02:51:51;;;;;;;38.48;8.68;;;;;;;19.84;89.58;99868.55;2674759;89;21111;-62
2021/07/27 02:55:52;;;;;;;28.75;7.87;;;;;;;19.90;89.76;99867.47;2674405;89;21122;-64
2021/07/27 03:00:00;;;;;;;31.52;8.03;;;;;;;19.97;89.51;99856.22;2674454;89;21088;-63
2021/07/27 03:04:01;;;;;;;38.23;9.38;;;;;;;19.98;89.35;99853.33;2674192;89;21090;-62
2021/07/27 03:08:18;;;;;;;32.35;9.25;;;;;;;20.02;89.36;99856.45;2673911;87;21137;-63
2021/07/27 03:12:12;;;;;;;40.67;8.83;;;;;;;20.09;89.23;99850.59;2671949;89;21019;-62
2021/07/27 03:16:23;;;;;;;32.63;7.80;;;;;;;20.06;88.47;99859.09;2674286;89;21094;-64
2021/07/27 03:20:27;;;;;;;45.05;10.93;;;;;;;20.08;88.73;99860.22;2674170;89;21075;-64
2021/07/27 03:24:29;;;;;;;59.67;11.90;;;;;;;20.06;88.32;99860.94;2708873;88;21035;-64
2021/07/27 03:28:31;;;;;;;46.20;9.63;;;;;;;20.04;88.48;99861.13;2708958;88;21019;-64
2021/07/27 03:32:35;;;;;;;34.33;7.60;;;;;;;20.06;88.30;99860.44;2700964;88;21020;-64
2021/07/27 03:36:38;;;;;;;35.43;9.00;;;;;;;20.07;88.61;99859.41;2700970;88;21044;-63
2021/07/27 03:40:40;;;;;;;23.05;6.97;;;;;;;20.17;88.88;99871.70;2700697;88;21091;-65
2021/07/27 03:44:42;;;;;;;25.32;6.55;;;;;;;20.29;88.83;99866.06;2700650;88;21079;-62
2021/07/27 03:48:43;;;;;;;25.75;6.70;;;;;;;20.35;88.53;99863.90;2700752;87;21016;-64
2021/07/27 03:52:45;;;;;;;33.10;6.87;;;;;;;20.35;88.54;99862.55;2700872;87;21075;-63
2021/07/27 03:56:47;;;;;;;36.25;9.48;;;;;;;20.35;88.74;99874.70;2700373;87;21629;-64
2021/07/27 04:00:49;;;;;;;27.65;7.58;;;;;;;20.32;88.36;99875.61;2701126;88;21028;-63
2021/07/27 04:04:51;;;;;;;38.60;8.58;;;;;;;20.24;88.77;99894.16;2700828;86;21099;-63
2021/07/27 04:08:57;;;;;;;25.90;7.50;;;;;;;20.18;88.81;99897.16;2700739;88;21015;-64
2021/07/27 04:13:01;;;;;;;25.15;8.48;;;;;;;20.08;89.65;99904.27;2700733;88;22208;-63
2021/07/27 04:17:03;;;;;;;41.13;8.98;;;;;;;20.01;89.95;99918.22;2699873;88;21491;-63
2021/07/27 04:21:08;;;;;;;30.43;7.53;;;;;;;20.04;90.78;99927.80;2700604;88;21115;-62
2021/07/27 04:25:11;;;;;;;16.10;5.92;;;;;;;20.12;90.93;99927.13;2700692;87;21111;-63
2021/07/27 04:29:16;;;;;;;25.97;6.47;;;;;;;20.20;91.16;99921.25;2700628;87;21099;-64
2021/07/27 04:33:18;;;;;;;20.35;7.33;;;;;;;20.29;91.51;99922.77;2701023;88;21103;-64
2021/07/27 04:37:22;;;;;;;18.23;5.72;;;;;;;20.39;91.12;99915.66;2700768;88;21044;-63
2021/07/27 04:41:23;;;;;;;17.25;5.67;;;;;;;20.58;91.69;99914.08;2700751;88;21576;-64
2021/07/27 04:45:29;;;;;;;19.70;5.87;;;;;;;20.94;91.46;99917.05;2701147;87;21115;-64
2021/07/27 04:49:31;;;;;;;13.25;5.70;;;;;;;21.51;91.73;99921.30;2701059;87;21070;-64
2021/07/27 04:53:36;;;;;;;13.35;5.65;;;;;;;22.31;95.07;99920.45;2701722;88;21059;-63
2021/07/27 04:57:44;;;;;;;17.92;5.45;;;;;;;23.23;93.54;99923.52;2702184;88;21016;-62
2021/07/27 05:01:46;;;;;;;17.23;5.35;;;;;;;23.86;88.08;99934.53;2702099;88;21050;-62
2021/07/27 05:05:48;;;;;;;20.10;6.85;;;;;;;24.33;82.77;99934.11;2702214;86;21091;-63
2021/07/27 05:09:54;;;;;;;26.25;7.35;;;;;;;24.41;80.26;99934.89;2702390;88;21050;-63
2021/07/27 05:13:57;;;;;;;28.05;8.13;;;;;;;24.80;79.02;99931.42;2702042;88;21068;-64
2021/07/27 05:18:00;;;;;;;20.65;6.70;;;;;;;25.17;77.32;99939.50;2702615;88;21040;-63
2021/07/27 05:22:02;;;;;;;18.27;6.80;;;;;;;25.43;75.85;99936.08;2702972;87;21100;-63
2021/07/27 05:26:05;;;;;;;17.35;6.65;;;;;;;25.70;75.63;99936.22;2702809;87;21043;-64
2021/07/27 05:30:08;;;;;;;19.37;5.42;;;;;;;26.10;75.25;99941.79;2702970;87;21035;-64
2021/07/27 05:34:10;;;;;;;15.38;5.28;;;;;;;26.70;73.37;99943.10;2703395;88;21059;-64
2021/07/27 05:38:12;;;;;;;10.13;5.03;;;;;;;27.18;71.54;99946.51;2703610;88;21028;-64
2021/07/27 05:42:14;;;;;;;20.02;4.80;;;;;;;27.49;70.34;99943.49;2704058;88;21049;-64
2021/07/27 05:46:16;;;;;;;20.50;4.80;;;;;;;27.79;69.60;99943.72;2704026;88;21056;-65
2021/07/27 05:50:19;;;;;;;13.08;4.22;;;;;;;28.18;66.96;99944.34;2704174;88;21019;-65
2021/07/27 05:54:21;;;;;;;20.43;4.90;;;;;;;28.53;66.05;99943.70;2704134;87;21067;-63
2021/07/27 05:58:26;;;;;;;8.60;4.83;;;;;;;28.78;65.93;99943.19;2704099;88;21040;-65
2021/07/27 06:02:28;;;;;;;10.70;4.72;;;;;;;28.90;63.62;99947.19;2704119;87;21072;-65
2021/07/27 06:06:41;;;;;;;14.47;4.60;;;;;;;28.87;63.29;99949.88;2703545;86;21131;-65
2021/07/27 06:10:42;;;;;;;6.58;4.00;;;;;;;28.86;62.96;99953.70;2703833;88;21036;-65
2021/07/27 06:14:44;;;;;;;7.33;4.58;;;;;;;28.91;62.25;99952.42;2704031;88;21024;-66
2021/07/27 06:19:08;;;;;;;7.75;4.62;;;;;;;29.00;62.29;99954.69;2703499;88;36081;-65
2021/07/27 06:23:10;;;;;;;7.40;4.70;;;;;;;29.18;61.79;99952.97;2703974;88;21027;-66
2021/07/27 06:27:18;;;;;;;7.53;4.40;;;;;;;29.28;61.76;99950.03;2703751;87;21035;-64
2021/07/27 06:31:19;;;;;;;13.15;4.28;;;;;;;29.26;59.95;99921.55;2703611;88;21076;-66
2021/07/27 06:35:21;;;;;;;9.90;5.42;;;;;;;29.26;59.95;99921.55;2703888;87;21055;-65
2021/07/27 06:39:25;;;;;;;9.45;4.72;;;;;;;29.56;60.94;99948.95;2703893;87;21040;-66
2021/07/27 06:43:27;;;;;;;8.03;4.37;;;;;;;29.72;59.47;99955.92;2703506;87;21052;-67
2021/07/27 06:47:29;;;;;;;24.18;6.30;;;;;;;29.85;59.02;99957.39;2703397;87;21032;-67
2021/07/27 06:51:31;;;;;;;4.72;4.20;;;;;;;29.67;58.04;99961.38;2704050;87;21028;-65
2021/07/27 06:55:33;;;;;;;7.40;4.33;;;;;;;29.89;59.58;99958.54;2703856;88;21039;-65
2021/07/27 06:59:36;;;;;;;8.23;4.53;;;;;;;29.71;58.64;99952.91;2703933;87;21016;-66
2021/07/27 07:03:42;;;;;;;9.35;3.95;;;;;;;29.71;58.64;99952.91;2703920;88;21076;-66
2021/07/27 07:07:46;;;;;;;7.95;3.75;;;;;;;29.29;58.23;99955.81;2703594;86;21099;-66
2021/07/27 07:11:48;;;;;;;8.30;3.72;;;;;;;29.17;58.70;99957.31;2703959;88;21024;-66
2021/07/27 07:15:50;;;;;;;6.30;3.50;;;;;;;28.96;60.12;99965.87;2703744;87;21048;-65
2021/07/27 07:19:53;;;;;;;4.58;3.87;;;;;;;28.75;58.28;99964.23;2703802;88;21027;-66
2021/07/27 07:23:54;;;;;;;6.35;3.27;;;;;;;28.69;59.86;99966.59;2703370;88;21068;-67
2021/07/27 07:27:56;;;;;;;11.83;3.87;;;;;;;28.88;59.23;99965.22;2703364;87;21094;-67
2021/07/27 07:31:58;;;;;;;6.12;3.33;;;;;;;29.02;60.42;99969.78;2674393;88;21102;-67
2021/07/27 07:35:59;;;;;;;7.53;3.70;;;;;;;29.10;59.18;99970.39;2666634;89;20995;-67
2021/07/27 07:40:03;;;;;;;10.65;4.15;;;;;;;29.17;60.00;99958.69;2666403;88;21026;-67
2021/07/27 07:44:09;;;;;;;4.50;3.50;;;;;;;29.40;60.41;99961.66;2666037;88;21107;-66
2021/07/27 07:48:13;;;;;;;5.58;3.67;;;;;;;29.48;59.54;99951.64;2666302;89;21067;-68
2021/07/27 07:52:15;;;;;;;5.03;3.73;;;;;;;29.48;59.54;99951.64;2666629;89;21043;-67
2021/07/27 07:56:18;;;;;;;7.80;3.77;;;;;;;29.67;59.03;99953.96;2666488;88;21067;-67
2021/07/27 08:00:22;;;;;;;6.95;3.50;;;;;;;29.82;58.86;99952.44;2666674;89;21011;-69
2021/07/27 08:04:25;;;;;;;3.72;3.37;;;;;;;29.88;58.28;99955.52;2666563;88;21003;-68
2021/07/27 08:08:28;;;;;;;16.85;5.08;;;;;;;29.81;59.18;99943.94;2666312;88;21062;-67
2021/07/27 08:12:30;;;;;;;4.15;2.92;;;;;;;29.84;59.65;99952.47;2666608;89;20992;-66
2021/07/27 08:16:32;;;;;;;6.53;2.92;;;;;;;29.93;57.39;99951.44;2666778;89;21035;-67
2021/07/27 08:20:34;;;;;;;4.00;3.00;;;;;;;29.87;56.72;99953.84;2666851;89;21031;-67
2021/07/27 08:24:36;;;;;;;19.15;3.50;;;;;;;29.92;57.95;99951.16;2666914;89;20991;-66
2021/07/27 08:28:39;;;;;;;6.87;3.70;;;;;;;30.06;58.37;99950.98;2666714;89;21078;-68
2021/07/27 08:32:49;;;;;;;11.25;3.30;;;;;;;30.14;58.14;99955.71;2666235;87;21051;-67
2021/07/27 08:36:57;;;;;;;3.50;3.10;;;;;;;30.27;56.66;99950.30;2666317;89;21067;-68
2021/07/27 08:41:00;;;;;;;5.40;3.55;;;;;;;30.18;56.47;99956.83;2666274;89;21031;-67
2021/07/27 08:45:04;;;;;;;8.30;4.25;;;;;;;30.20;57.54;99958.76;2666335;89;21035;-67
2021/07/27 08:49:08;;;;;;;8.80;4.10;;;;;;;30.16;57.04;99962.56;2666769;89;21050;-67
2021/07/27 08:53:10;;;;;;;7.78;3.45;;;;;;;30.00;55.99;99957.50;2666924;88;21071;-67
2021/07/27 08:57:15;;;;;;;6.00;3.80;;;;;;;30.06;57.24;99967.44;2666684;89;21056;-67
2021/07/27 09:01:30;;;;;;;8.38;3.65;;;;;;;30.01;56.74;99972.05;2666460;88;21066;-67
2021/07/27 09:05:32;;;;;;;4.08;2.65;;;;;;;29.91;55.09;99981.84;2666434;88;22017;-67
2021/07/27 09:09:41;;;;;;;4.92;3.10;;;;;;;29.98;54.80;99976.14;2666164;88;21118;-67
2021/07/27 09:13:46;;;;;;;3.10;2.52;;;;;;;29.99;55.00;99980.53;2666679;89;21086;-68
2021/07/27 09:17:58;;;;;;;5.95;3.98;;;;;;;30.02;55.40;99981.40;2665577;89;21031;-67
2021/07/27 09:22:04;;;;;;;25.27;5.87;;;;;;;29.99;55.42;99976.42;2666026;89;21003;-67
2021/07/27 09:26:10;;;;;;;3.52;2.87;;;;;;;30.12;55.88;99978.46;2666589;88;21098;-68
2021/07/27 09:30:25;;;;;;;3.35;3.00;;;;;;;30.40;54.91;99983.28;2666489;87;21035;-66
2021/07/27 09:34:29;;;;;;;2.55;2.00;;;;;;;30.53;54.07;99975.95;2667292;89;21074;-66
2021/07/27 09:38:33;;;;;;;5.35;3.10;;;;;;;30.66;52.97;99976.56;2666664;89;21058;-67
2021/07/27 09:42:36;;;;;;;5.20;3.35;;;;;;;30.59;51.54;99980.36;2666948;89;21007;-67
2021/07/27 09:46:48;;;;;;;7.72;4.25;;;;;;;30.49;51.82;99978.39;2667038;89;21050;-67
2021/07/27 09:50:52;;;;;;;4.17;2.95;;;;;;;30.49;52.67;99976.20;2666850;89;21038;-67
2021/07/27 09:54:54;;;;;;;10.30;4.12;;;;;;;30.55;52.81;99975.66;2666487;89;21095;-67
2021/07/27 09:58:58;;;;;;;8.08;4.75;;;;;;;30.61;53.33;99978.20;2666948;88;20995;-67
2021/07/27 10:03:02;;;;;;;8.25;4.67;;;;;;;30.53;52.83;99973.20;2666960;89;21098;-67
2021/07/27 10:07:05;;;;;;;;;;;;;;;30.67;52.78;99971.38;2668848;88;21134;-66
2021/07/27 10:11:12;;;;;;;5.20;3.80;;;;;;;30.70;52.98;99965.35;2666921;89;20161;-66
2021/07/27 10:15:16;;;;;;;3.85;2.72;;;;;;;30.74;52.31;99959.59;2667330;89;21043;-66
2021/07/27 10:19:31;;;;;;;3.72;2.15;;;;;;;30.83;51.16;99959.34;2667333;89;21375;-66
2021/07/27 10:23:34;;;;;;;4.78;3.27;;;;;;;30.95;51.65;99948.67;2666383;89;21059;-67
2021/07/27 10:27:55;;;;;;;5.87;3.60;;;;;;;31.13;54.11;99952.83;2667283;88;21019;-67
2021/07/27 10:31:59;;;;;;;4.55;3.90;;;;;;;31.43;52.14;99952.06;2667221;87;21007;-67
2021/07/27 10:36:01;;;;;;;4.85;3.33;;;;;;;31.62;51.80;99946.86;2667184;89;21107;-68
2021/07/27 10:40:03;;;;;;;4.85;3.55;;;;;;;31.47;51.08;99945.48;2667156;89;21067;-67
2021/07/27 10:44:09;;;;;;;5.15;2.27;;;;;;;31.13;52.65;99947.33;2667209;89;21099;-67
2021/07/27 10:48:12;;;;;;;3.72;2.90;;;;;;;30.76;51.32;99950.02;2667081;89;21058;-68
2021/07/27 10:52:16;;;;;;;3.35;2.55;;;;;;;30.62;52.02;99946.11;2667388;89;21007;-67
2021/07/27 10:56:21;;;;;;;4.47;2.73;;;;;;;30.61;52.72;99943.05;2667372;89;21046;-67
2021/07/27 11:00:35;;;;;;;4.50;1.95;;;;;;;30.68;52.62;99946.39;2667333;89;21102;-67
2021/07/27 11:04:38;;;;;;;3.70;3.02;;;;;;;30.64;50.40;99945.28;2667414;88;21050;-67
2021/07/27 11:08:41;;;;;;;3.47;2.40;;;;;;;30.62;51.17;99950.22;2666954;89;20980;-67
2021/07/27 11:12:42;;;;;;;5.62;2.83;;;;;;;30.78;51.11;99938.74;2666962;89;21031;-66
2021/07/27 11:16:44;;;;;;;11.70;2.58;;;;;;;30.96;50.47;99933.85;2667005;88;21070;-68
2021/07/27 11:20:46;;;;;;;3.77;2.00;;;;;;;31.03;51.25;99928.91;2667127;89;21031;-67
2021/07/27 11:24:48;;;;;;;4.67;3.40;;;;;;;31.18;52.21;99928.94;2666940;89;21031;-67
2021/07/27 11:28:50;;;;;;;6.05;2.45;;;;;;;31.24;49.82;99922.11;2666902;89;21099;-67
2021/07/27 11:32:52;;;;;;;3.00;2.37;;;;;;;31.37;50.25;99922.14;2667039;87;21035;-67
2021/07/27 11:36:57;;;;;;;3.90;3.17;;;;;;;31.69;52.15;99919.64;2667326;88;21019;-66
2021/07/27 11:41:06;;;;;;;;;;;;;;;31.95;48.40;99920.46;2669828;89;21078;-67
2021/07/27 11:45:09;;;;;;;5.40;3.02;;;;;;;32.16;51.73;99924.00;2667205;89;20121;-67
2021/07/27 11:49:17;;;;;;;2.58;2.37;;;;;;;32.29;50.12;99923.11;2667068;89;21011;-67
2021/07/27 11:53:25;;;;;;;5.20;3.15;;;;;;;32.41;49.03;99915.94;2666960;89;21023;-67
2021/07/27 11:57:34;;;;;;;47.13;7.90;;;;;;;32.61;50.78;99918.59;2666969;89;21043;-67
2021/07/27 12:01:50;;;;;;;2.72;2.50;;;;;;;32.60;50.54;99915.58;2667154;89;21095;-67
2021/07/27 12:05:53;;;;;;;3.95;3.12;;;;;;;32.66;49.86;99910.88;2667265;88;21059;-67
2021/07/27 12:10:01;;;;;;;4.77;2.80;;;;;;;32.81;50.48;99912.71;2667263;89;21027;-67
2021/07/27 12:14:03;;;;;;;6.60;3.20;;;;;;;32.96;50.80;99906.88;2667194;89;20999;-67
2021/07/27 12:18:10;;;;;;;17.48;3.15;;;;;;;33.10;49.05;99909.80;2667104;89;21027;-67
2021/07/27 12:22:12;;;;;;;2.72;2.45;;;;;;;33.23;49.78;99911.12;2678022;87;21120;-67
2021/07/27 12:26:19;;;;;;;3.75;3.02;;;;;;;33.19;46.93;99906.16;2690192;88;21020;-67
2021/07/27 12:30:20;;;;;;;2.60;2.40;;;;;;;33.08;48.58;99903.77;2691076;87;21088;-67
2021/07/27 12:34:22;;;;;;;8.08;2.87;;;;;;;33.07;48.12;99893.31;2706057;88;20973;-67
2021/07/27 12:38:25;;;;;;;4.10;3.08;;;;;;;33.17;47.14;99892.42;2706640;88;21028;-68
2021/07/27 12:42:27;;;;;;;5.17;3.27;;;;;;;33.07;45.32;99885.05;2706490;88;21032;-67
2021/07/27 12:46:29;;;;;;;4.58;3.20;;;;;;;33.12;47.75;99885.00;2706465;88;21064;-67
2021/07/27 12:50:31;;;;;;;2.95;2.60;;;;;;;33.26;49.80;99876.90;2706482;88;21022;-67
2021/07/27 12:54:32;;;;;;;13.10;3.30;;;;;;;33.41;47.86;99870.45;2714848;87;21059;-67
2021/07/27 12:58:36;;;;;;;3.98;2.40;;;;;;;33.51;46.35;99870.95;2709493;88;21032;-67
2021/07/27 13:02:38;;;;;;;5.13;3.67;;;;;;;33.29;45.49;99864.48;2715968;86;21119;-67
2021/07/27 13:06:40;;;;;;;6.80;3.27;;;;;;;32.86;46.09;99870.56;2714184;87;21669;-67
2021/07/27 13:10:41;;;;;;;6.42;3.77;;;;;;;32.48;46.84;99873.25;2714390;87;21027;-66
2021/07/27 13:14:43;;;;;;;3.95;3.35;;;;;;;32.30;48.21;99866.44;2714129;86;21055;-64
2021/07/27 13:18:47;;;;;;;3.15;2.83;;;;;;;32.21;47.62;99870.86;2714534;87;21075;-64
2021/07/27 13:22:48;;;;;;;6.87;3.50;;;;;;;32.27;47.91;99862.88;2748343;86;21004;-63
2021/07/27 13:26:55;;;;;;;11.12;2.80;;;;;;;32.40;50.46;99860.63;2748740;86;21011;-63
2021/07/27 13:30:57;;;;;;;2.95;2.65;;;;;;;32.61;50.97;99852.53;2742943;86;21032;-65
2021/07/27 13:34:59;;;;;;;2.62;2.35;;;;;;;32.80;45.76;99850.48;2710852;87;21075;-66
2021/07/27 13:39:37;;;;;;;3.55;3.25;;;;;;;32.91;46.01;99849.89;2647689;90;21063;-67
2021/07/27 13:43:39;;;;;;;6.80;3.17;;;;;;;32.92;46.90;99852.11;2672659;89;21079;-67
2021/07/27 13:48:01;;;;;;;4.10;2.50;;;;;;;32.82;46.42;99848.30;2702663;88;21032;-68
2021/07/27 13:52:06;;;;;;;4.50;2.80;;;;;;;32.51;46.48;99862.23;2701723;88;21016;-67
2021/07/27 13:56:08;;;;;;;6.10;3.12;;;;;;;32.29;47.00;99870.30;2702182;88;21299;-67
2021/07/27 14:00:13;;;;;;;6.90;3.08;;;;;;;32.16;47.77;99872.27;2706479;87;21027;-67
2021/07/27 14:04:15;;;;;;;3.75;2.92;;;;;;;32.02;47.40;99875.60;2710868;87;21536;-67
2021/07/27 14:08:31;;;;;;;3.08;2.62;;;;;;;31.99;48.98;99871.23;2647607;88;21032;-67
2021/07/27 14:12:33;;;;;;;2.90;2.65;;;;;;;31.93;47.90;99868.20;2673096;89;21055;-67
2021/07/27 14:16:35;;;;;;;8.20;3.22;;;;;;;31.90;48.62;99866.86;2702071;88;21088;-67
2021/07/27 14:20:37;;;;;;;5.15;3.55;;;;;;;31.87;47.88;99863.30;2702911;88;21012;-67
2021/07/27 14:24:38;;;;;;;5.97;3.70;;;;;;;31.84;47.84;99861.11;2702744;88;21055;-67
2021/07/27 14:28:40;;;;;;;4.95;3.10;;;;;;;31.75;47.73;99864.95;2706622;87;21652;-67
2021/07/27 14:32:42;;;;;;;3.87;2.92;;;;;;;31.63;46.83;99866.59;2734884;86;21075;-67
2021/07/27 14:36:45;;;;;;;4.05;2.90;;;;;;;31.48;47.52;99868.81;2760387;86;21028;-66
2021/07/27 14:40:47;;;;;;;8.65;3.80;;;;;;;31.29;46.96;99868.56;2760243;86;21036;-66
2021/07/27 14:44:49;;;;;;;36.83;8.30;;;;;;;31.19;47.16;99861.12;2760471;86;21121;-67
2021/07/27 14:48:54;;;;;;;7.22;3.17;;;;;;;31.17;47.62;99857.25;2760614;86;20976;-67
2021/07/27 14:52:56;;;;;;;3.98;2.92;;;;;;;31.26;47.48;99867.74;2760329;86;21047;-66
2021/07/27 14:57:00;;;;;;;4.35;2.58;;;;;;;31.26;47.53;99865.00;2760295;86;21075;-67
2021/07/27 15:01:02;;;;;;;3.87;3.25;;;;;;;31.23;47.08;99866.89;2760294;86;21000;-68
2021/07/27 15:05:05;;;;;;;6.65;3.30;;;;;;;31.20;47.40;99869.66;2760247;85;21059;-66
2021/07/27 15:09:09;;;;;;;5.75;2.95;;;;;;;31.53;47.08;99866.05;2759941;85;21055;-67
2021/07/27 15:13:11;;;;;;;;;;;;;;;31.95;45.98;99866.83;2762705;86;21063;-67
2021/07/27 15:17:15;;;;;;;5.45;3.87;;;;;;;32.24;46.03;99855.73;2759908;86;20109;-68
2021/07/27 15:21:16;;;;;;;7.17;3.25;;;;;;;32.33;45.00;99859.02;2760456;86;21040;-66
2021/07/27 15:25:18;;;;;;;117.10;19.60;;;;;;;32.16;45.11;99860.73;2760116;86;21055;-67
2021/07/27 15:29:20;;;;;;;3.83;2.85;;;;;;;32.02;45.29;99854.98;2759955;86;21027;-69
2021/07/27 15:33:22;;;;;;;3.83;2.72;;;;;;;32.01;47.28;99855.27;2760133;86;21070;-67
2021/07/27 15:37:24;;;;;;;4.55;2.62;;;;;;;32.22;47.62;99854.63;2760418;86;21044;-67
2021/07/27 15:41:26;;;;;;;15.70;4.72;;;;;;;32.42;45.92;99860.63;2761176;85;21011;-67
2021/07/27 15:45:29;;;;;;;4.78;3.52;;;;;;;32.31;45.44;99856.23;2760840;86;21048;-67
2021/07/27 15:49:30;;;;;;;25.08;6.05;;;;;;;32.29;45.67;99861.20;2760033;86;21030;-66
2021/07/27 15:53:32;;;;;;;4.00;3.60;;;;;;;32.20;46.17;99858.22;2760258;86;20988;-66
2021/07/27 15:57:34;;;;;;;3.90;3.50;;;;;;;32.28;46.45;99854.89;2760676;86;21011;-67
2021/07/27 16:01:36;;;;;;;2.92;2.60;;;;;;;32.23;45.08;99851.34;2760467;86;20964;-67
2021/07/27 16:05:40;;;;;;;5.40;3.85;;;;;;;32.03;45.80;99853.90;2760437;86;21055;-68
2021/07/27 16:09:42;;;;;;;30.60;7.37;;;;;;;31.87;46.40;99848.98;2760528;86;21047;-67
2021/07/27 16:13:44;;;;;;;3.27;2.98;;;;;;;31.63;46.59;99854.22;2760239;86;21042;-66
2021/07/27 16:17:45;;;;;;;5.20;2.92;;;;;;;31.41;47.41;99845.73;2760103;86;21051;-68
2021/07/27 16:22:01;;;;;;;6.58;3.22;;;;;;;31.28;47.51;99844.94;2760409;86;21019;-68
2021/07/27 16:26:03;;;;;;;9.28;3.95;;;;;;;31.30;48.74;99834.50;2760235;86;20991;-67
2021/07/27 16:30:07;;;;;;;7.03;4.08;;;;;;;31.24;48.00;99829.55;2759675;86;21094;-67
2021/07/27 16:34:09;;;;;;;7.77;4.13;;;;;;;31.13;48.05;99822.36;2723837;86;21079;-67
2021/07/27 16:38:12;;;;;;;4.80;3.08;;;;;;;31.08;48.61;99814.98;2702323;86;21071;-68
2021/07/27 16:42:15;;;;;;;4.15;2.95;;;;;;;31.01;48.55;99812.50;2719772;87;21023;-68
2021/07/27 16:46:28;;;;;;;3.72;2.75;;;;;;;30.91;47.94;99806.98;2716217;86;21056;-68
2021/07/27 16:50:31;;;;;;;31.75;8.03;;;;;;;30.77;47.92;99817.69;2700285;88;21060;-68
2021/07/27 16:54:33;;;;;;;9.15;4.20;;;;;;;30.63;48.61;99807.23;2663094;89;21048;-67
2021/07/27 16:58:45;;;;;;;32.45;8.13;;;;;;;30.55;49.27;99807.74;2701977;86;21039;-67
2021/07/27 17:02:48;;;;;;;10.85;4.58;;;;;;;30.50;49.63;99803.63;2737042;86;21055;-67
2021/07/27 17:06:50;;;;;;;8.65;3.98;;;;;;;30.50;50.14;99809.11;2667150;88;21627;-67
2021/07/27 17:10:52;;;;;;;7.83;3.55;;;;;;;30.47;50.00;99803.61;2646330;89;21016;-67
2021/07/27 17:14:54;;;;;;;13.43;4.25;;;;;;;30.47;49.83;99801.43;2646892;90;21055;-66
2021/07/27 17:18:56;;;;;;;8.85;3.92;;;;;;;30.38;49.81;99801.13;2646479;89;21035;-66
2021/07/27 17:22:59;;;;;;;14.75;4.20;;;;;;;30.21;50.21;99813.14;2645959;90;21023;-65
2021/07/27 17:27:02;;;;;;;6.33;3.37;;;;;;;30.12;50.72;99814.73;2646202;90;21023;-66
2021/07/27 17:31:04;;;;;;;26.65;7.62;;;;;;;30.03;51.28;99820.47;2645704;89;21031;-66
2021/07/27 17:35:08;;;;;;;26.02;6.83;;;;;;;29.88;51.78;99811.61;2659107;89;21030;-65
2021/07/27 17:39:10;;;;;;;12.05;4.33;;;;;;;29.60;51.82;99804.88;2660838;89;21018;-65
2021/07/27 17:43:12;;;;;;;26.23;4.75;;;;;;;29.42;52.47;99811.59;2660910;88;21054;-66
2021/07/27 17:47:23;;;;;;;13.53;5.83;;;;;;;29.37;53.77;99817.02;2661704;89;21027;-64
2021/07/27 17:51:25;;;;;;;22.58;5.85;;;;;;;29.30;54.50;99817.80;2661297;89;21007;-67
2021/07/27 17:55:27;;;;;;;57.93;11.95;;;;;;;29.24;55.85;99825.67;2661372;88;21062;-66
2021/07/27 17:59:29;;;;;;;221.77;42.00;;;;;;;29.17;56.21;99818.51;2660904;89;21073;-65
2021/07/27 18:03:30;;;;;;;21.57;9.63;;;;;;;29.00;57.93;99827.39;2638624;90;21006;-66
2021/07/27 18:07:43;;;;;;;28.70;9.83;;;;;;;28.74;57.24;99821.09;2657538;88;21061;-66
2021/07/27 18:11:45;;;;;;;16.45;7.33;;;;;;;28.47;57.06;99793.20;2657678;89;21038;-67
2021/07/27 18:15:46;;;;;;;16.37;7.30;;;;;;;28.56;56.72;99823.66;2657668;89;21029;-67
2021/07/27 18:19:48;;;;;;;15.50;7.37;;;;;;;28.48;56.82;99820.84;2657407;88;21042;-67
2021/07/27 18:23:50;;;;;;;14.30;5.97;;;;;;;28.35;58.01;99823.44;2658019;89;21072;-66
2021/07/27 18:27:55;;;;;;;10.58;6.70;;;;;;;28.21;59.33;99822.17;2657618;89;21073;-68
2021/07/27 18:31:57;;;;;;;26.37;7.53;;;;;;;28.09;58.88;99816.80;2657492;88;21065;-66
2021/07/27 18:35:59;;;;;;;19.73;7.15;;;;;;;27.97;59.60;99815.56;2657690;88;21089;-67
2021/07/27 18:40:03;;;;;;;11.38;5.83;;;;;;;27.77;59.05;99818.30;2657293;89;21117;-65
2021/07/27 18:44:05;;;;;;;11.50;5.42;;;;;;;27.63;59.60;99817.84;2657629;89;21057;-66
2021/07/27 18:48:10;;;;;;;8.53;5.53;;;;;;;27.49;59.78;99821.96;2657312;89;21098;-68
2021/07/27 18:52:12;;;;;;;16.60;7.25;;;;;;;27.31;60.58;99824.39;2657201;89;21091;-67
2021/07/27 18:56:18;;;;;;;24.92;9.15;;;;;;;27.13;61.90;99822.75;2657188;88;21113;-66
2021/07/27 19:00:21;;;;;;;35.88;9.85;;;;;;;26.87;61.77;99829.95;2657434;89;21094;-66
2021/07/27 19:04:23;;;;;;;27.58;8.05;;;;;;;26.70;62.74;99838.08;2657547;89;21090;-66
2021/07/27 19:08:24;;;;;;;42.15;9.90;;;;;;;26.56;63.21;99842.17;2657031;89;21117;-67
2021/07/27 19:12:26;;;;;;;57.33;11.68;;;;;;;26.38;63.72;99844.84;2657556;89;21061;-66
2021/07/27 19:16:28;;;;;;;37.53;10.58;;;;;;;26.25;64.26;99851.11;2657478;89;21011;-66
2021/07/27 19:20:30;;;;;;;41.60;8.85;;;;;;;26.10;64.70;99861.39;2657511;89;21113;-67